createdAt,value
2018-06-18T00:00:55.491Z,13.30
2018-06-18T00:02:00.850Z,13.28
2018-06-18T00:03:06.859Z,13.29
2018-06-18T00:04:13.192Z,13.31
2018-06-18T00:05:17.931Z,13.33
2018-06-18T00:06:22.580Z,13.38
2018-06-18T00:07:27.246Z,13.38
2018-06-18T00:08:31.920Z,13.42
2018-06-18T00:09:37.064Z,13.44
2018-06-18T00:10:42.513Z,13.42
2018-06-18T00:11:47.169Z,13.40
2018-06-18T00:12:52.765Z,13.37
2018-06-18T00:13:57.437Z,13.28
2018-06-18T00:15:02.663Z,13.20
2018-06-18T00:16:07.409Z,13.14
2018-06-18T00:17:12.092Z,13.12
2018-06-18T00:18:16.809Z,13.15
2018-06-18T00:19:21.502Z,13.18
2018-06-18T00:20:27.255Z,13.23
2018-06-18T00:21:35.108Z,13.20
2018-06-18T00:22:39.801Z,13.16
2018-06-18T00:23:45.021Z,13.17
2018-06-18T00:24:50.167Z,13.17
2018-06-18T00:25:55.394Z,13.20
2018-06-18T00:27:02.093Z,13.21
2018-06-18T00:28:07.241Z,13.13
2018-06-18T00:29:17.506Z,13.13
2018-06-18T00:30:22.171Z,13.11
2018-06-18T00:31:26.991Z,13.12
2018-06-18T00:32:31.713Z,13.17
2018-06-18T00:33:37.479Z,13.16
2018-06-18T00:34:43.167Z,13.16
2018-06-18T00:35:47.878Z,13.17
2018-06-18T00:36:52.597Z,13.22
2018-06-18T00:37:57.258Z,13.26
2018-06-18T00:39:01.977Z,13.26
2018-06-18T00:40:06.707Z,13.21
2018-06-18T00:41:12.798Z,13.21
2018-06-18T00:42:17.478Z,13.15
2018-06-18T00:43:23.382Z,13.20
2018-06-18T00:44:28.112Z,13.23
2018-06-18T00:45:33.216Z,13.27
2018-06-18T00:46:37.790Z,13.29
2018-06-18T00:47:42.896Z,13.29
2018-06-18T00:48:47.474Z,13.32
2018-06-18T00:49:52.047Z,13.35
2018-06-18T00:50:56.632Z,13.33
2018-06-18T00:52:01.325Z,13.32
2018-06-18T00:53:05.882Z,13.30
2018-06-18T00:54:11.007Z,13.32
2018-06-18T00:55:20.803Z,13.35
2018-06-18T00:56:25.520Z,13.32
2018-06-18T00:57:30.212Z,13.33
2018-06-18T00:58:34.935Z,13.32
2018-06-18T00:59:39.605Z,13.31
2018-06-18T01:00:44.699Z,13.29
2018-06-18T01:01:49.382Z,13.28
2018-06-18T01:02:55.381Z,13.28
2018-06-18T01:04:00.729Z,13.29
2018-06-18T01:05:05.486Z,13.29
2018-06-18T01:06:11.008Z,13.25
2018-06-18T01:07:16.099Z,13.22
2018-06-18T01:08:20.846Z,13.21
2018-06-18T01:09:25.508Z,13.17
2018-06-18T01:10:30.228Z,13.16
2018-06-18T01:11:34.971Z,13.10
2018-06-18T01:12:40.748Z,13.10
2018-06-18T01:13:45.782Z,13.13
2018-06-18T01:14:50.453Z,13.18
2018-06-18T01:15:55.818Z,13.19
2018-06-18T01:17:00.493Z,13.18
2018-06-18T01:18:05.187Z,13.23
2018-06-18T01:19:09.971Z,13.22
2018-06-18T01:20:14.963Z,13.17
2018-06-18T01:21:21.209Z,13.21
2018-06-18T01:22:25.941Z,13.22
2018-06-18T01:23:38.346Z,13.24
2018-06-18T01:24:44.681Z,13.28
2018-06-18T01:25:49.795Z,13.17
2018-06-18T01:26:54.487Z,13.11
2018-06-18T01:27:59.177Z,13.05
2018-06-18T01:29:03.886Z,13.08
2018-06-18T01:30:09.115Z,13.11
2018-06-18T01:31:13.845Z,13.10
2018-06-18T01:32:18.838Z,13.05
2018-06-18T01:33:24.059Z,13.07
2018-06-18T01:34:29.649Z,13.10
2018-06-18T01:35:34.353Z,13.11
2018-06-18T01:36:38.987Z,13.13
2018-06-18T01:37:44.534Z,13.13
2018-06-18T01:38:50.551Z,13.10
2018-06-18T01:39:56.226Z,13.15
2018-06-18T01:41:01.681Z,13.11
2018-06-18T01:42:06.326Z,13.13
2018-06-18T01:43:12.336Z,13.15
2018-06-18T01:44:16.951Z,13.17
2018-06-18T01:45:22.007Z,13.13
2018-06-18T01:46:26.588Z,13.09
2018-06-18T01:47:31.181Z,13.07
2018-06-18T01:48:35.807Z,13.08
2018-06-18T01:49:40.400Z,13.09
2018-06-18T01:50:44.993Z,13.06
2018-06-18T01:51:51.271Z,13.03
2018-06-18T01:52:55.897Z,13.01
2018-06-18T01:54:00.534Z,13.02
2018-06-18T01:55:05.179Z,13.00
2018-06-18T01:56:09.811Z,13.02
2018-06-18T01:57:14.403Z,13.05
2018-06-18T01:58:19.984Z,13.09
2018-06-18T01:59:24.589Z,13.11
2018-06-18T02:00:29.704Z,13.13
2018-06-18T02:01:35.275Z,13.16
2018-06-18T02:02:40.623Z,13.20
2018-06-18T02:03:45.212Z,13.23
2018-06-18T02:04:50.110Z,13.24
2018-06-18T02:05:55.761Z,13.21
2018-06-18T02:07:00.432Z,13.21
2018-06-18T02:08:05.046Z,13.22
2018-06-18T02:09:11.426Z,13.24
2018-06-18T02:10:16.066Z,13.21
2018-06-18T02:11:20.679Z,13.23
2018-06-18T02:12:25.353Z,13.26
2018-06-18T02:13:29.964Z,13.28
2018-06-18T02:14:34.559Z,13.32
2018-06-18T02:15:39.169Z,13.32
2018-06-18T02:16:44.265Z,13.33
2018-06-18T02:17:48.884Z,13.35
2018-06-18T02:18:53.478Z,13.35
2018-06-18T02:19:59.030Z,13.32
2018-06-18T02:21:04.658Z,13.25
2018-06-18T02:22:09.240Z,13.18
2018-06-18T02:23:13.832Z,13.21
2018-06-18T02:24:18.401Z,13.21
2018-06-18T02:25:23.045Z,13.25
2018-06-18T02:26:27.643Z,13.30
2018-06-18T02:27:37.733Z,13.29
2018-06-18T02:28:47.336Z,13.30
2018-06-18T02:29:56.974Z,13.25
2018-06-18T02:31:06.512Z,13.20
2018-06-18T02:32:16.051Z,13.16
2018-06-18T02:33:25.869Z,13.18
2018-06-18T02:34:35.424Z,13.21
2018-06-18T02:35:45.194Z,13.25
2018-06-18T02:36:54.964Z,13.24
2018-06-18T02:38:04.425Z,13.23
2018-06-18T02:39:14.721Z,13.24
2018-06-18T02:40:24.187Z,13.24
2018-06-18T02:41:28.728Z,13.21
2018-06-18T02:42:33.228Z,13.17
2018-06-18T02:43:37.755Z,13.17
2018-06-18T02:44:42.278Z,13.16
2018-06-18T02:45:47.426Z,13.21
2018-06-18T02:46:52.052Z,13.17
2018-06-18T02:47:56.698Z,13.21
2018-06-18T02:49:01.317Z,13.24
2018-06-18T02:50:05.891Z,13.28
2018-06-18T02:51:10.549Z,13.26
2018-06-18T02:52:15.693Z,13.27
2018-06-18T02:53:20.333Z,13.28
2018-06-18T02:54:24.944Z,13.31
2018-06-18T02:55:30.300Z,13.28
2018-06-18T02:56:38.981Z,13.28
2018-06-18T02:57:44.152Z,13.27
2018-06-18T02:58:49.232Z,13.28
2018-06-18T02:59:53.808Z,13.30
2018-06-18T03:00:58.434Z,13.27
2018-06-18T03:02:04.222Z,13.26
2018-06-18T03:03:11.825Z,13.27
2018-06-18T03:04:16.396Z,13.25
2018-06-18T03:05:21.233Z,13.23
2018-06-18T03:06:25.853Z,13.20
2018-06-18T03:07:30.484Z,13.21
2018-06-18T03:08:35.094Z,13.18
2018-06-18T03:09:39.721Z,13.14
2018-06-18T03:10:44.351Z,13.06
2018-06-18T03:11:49.318Z,13.08
2018-06-18T03:12:53.881Z,13.14
2018-06-18T03:13:58.412Z,13.13
2018-06-18T03:15:03.015Z,13.12
2018-06-18T03:16:07.670Z,13.14
2018-06-18T03:17:12.203Z,13.09
2018-06-18T03:18:22.134Z,13.09
2018-06-18T03:19:31.709Z,13.14
2018-06-18T03:20:41.214Z,13.12
2018-06-18T03:21:50.746Z,13.12
2018-06-18T03:23:00.205Z,13.15
2018-06-18T03:24:10.925Z,13.18
2018-06-18T03:25:20.309Z,13.14
2018-06-18T03:26:29.856Z,13.17
2018-06-18T03:27:40.344Z,13.16
2018-06-18T03:28:50.719Z,13.12
2018-06-18T03:29:55.399Z,13.10
2018-06-18T03:31:00.329Z,13.10
2018-06-18T03:32:07.351Z,13.11
2018-06-18T03:33:12.054Z,13.10
2018-06-18T03:34:16.656Z,13.13
2018-06-18T03:35:21.316Z,13.16
2018-06-18T03:36:25.965Z,13.18
2018-06-18T03:37:31.047Z,13.12
2018-06-18T03:38:35.740Z,13.16
2018-06-18T03:39:40.965Z,13.21
2018-06-18T03:40:45.640Z,13.24
2018-06-18T03:41:51.049Z,13.29
2018-06-18T03:42:55.772Z,13.32
2018-06-18T03:44:03.772Z,13.30
2018-06-18T03:45:10.554Z,13.27
2018-06-18T03:46:15.359Z,13.23
2018-06-18T03:47:25.142Z,13.27
2018-06-18T03:48:29.796Z,13.31
2018-06-18T03:49:34.472Z,13.33
2018-06-18T03:50:39.966Z,13.37
2018-06-18T03:51:44.591Z,13.40
2018-06-18T03:52:49.243Z,13.42
2018-06-18T03:53:53.795Z,13.43
2018-06-18T03:54:59.443Z,13.41
2018-06-18T03:56:03.944Z,13.40
2018-06-18T03:57:09.580Z,13.34
2018-06-18T03:58:14.092Z,13.33
2018-06-18T03:59:19.975Z,13.35
2018-06-18T04:00:25.001Z,13.37
2018-06-18T04:01:42.804Z,13.37
2018-06-18T04:02:57.443Z,13.36
2018-06-18T04:04:08.062Z,13.38
2018-06-18T04:05:18.612Z,13.40
2018-06-18T04:06:28.112Z,13.42
2018-06-18T04:07:38.944Z,13.46
2018-06-18T04:08:43.595Z,13.40
2018-06-18T04:09:54.043Z,13.40
2018-06-18T04:11:03.522Z,13.46
2018-06-18T04:12:11.423Z,13.53
2018-06-18T04:13:16.938Z,13.56
2018-06-18T04:14:21.455Z,13.57
2018-06-18T04:15:25.972Z,13.56
2018-06-18T04:16:30.792Z,13.57
2018-06-18T04:17:36.364Z,13.51
2018-06-18T04:18:45.243Z,13.55
2018-06-18T04:19:49.808Z,13.59
2018-06-18T04:20:54.318Z,13.59
2018-06-18T04:21:58.805Z,13.62
2018-06-18T04:23:03.646Z,13.62
2018-06-18T04:24:08.182Z,13.64
2018-06-18T04:25:12.744Z,13.67
2018-06-18T04:26:17.276Z,13.66
2018-06-18T04:27:22.259Z,13.68
2018-06-18T04:28:27.164Z,13.72
2018-06-18T04:29:31.974Z,13.68
2018-06-18T04:30:36.472Z,13.63
2018-06-18T04:31:41.018Z,13.55
2018-06-18T04:32:45.599Z,13.51
2018-06-18T04:33:55.474Z,13.52
2018-06-18T04:35:00.924Z,13.67
2018-06-18T04:36:06.309Z,13.78
2018-06-18T04:37:10.870Z,13.86
2018-06-18T04:38:15.419Z,13.92
2018-06-18T04:39:21.455Z,13.97
2018-06-18T04:40:27.125Z,14.02
2018-06-18T04:41:31.643Z,14.03
2018-06-18T04:42:42.757Z,13.97
2018-06-18T04:43:52.253Z,13.98
2018-06-18T04:45:01.879Z,14.05
2018-06-18T04:46:11.435Z,14.12
2018-06-18T04:47:21.019Z,14.16
2018-06-18T04:48:30.627Z,14.17
2018-06-18T04:49:40.315Z,14.18
2018-06-18T04:50:49.895Z,14.10
2018-06-18T04:51:54.479Z,14.03
2018-06-18T04:52:59.049Z,14.00
2018-06-18T04:54:03.616Z,14.04
2018-06-18T04:55:08.542Z,14.08
2018-06-18T04:56:13.139Z,14.10
2018-06-18T04:57:17.704Z,14.12
2018-06-18T04:58:22.216Z,14.18
2018-06-18T04:59:26.839Z,14.18
2018-06-18T05:00:53.434Z,14.17
2018-06-18T05:01:58.142Z,14.02
2018-06-18T05:03:02.674Z,13.89
2018-06-18T05:04:07.191Z,13.89
2018-06-18T05:05:11.771Z,13.81
2018-06-18T05:06:16.310Z,13.72
2018-06-18T05:07:21.903Z,13.74
2018-06-18T05:08:31.661Z,13.77
2018-06-18T05:09:40.232Z,13.80
2018-06-18T05:10:46.125Z,13.84
2018-06-18T05:11:51.461Z,13.93
2018-06-18T05:12:57.104Z,13.97
2018-06-18T05:14:03.251Z,13.99
2018-06-18T05:15:07.852Z,14.04
2018-06-18T05:16:12.360Z,14.10
2018-06-18T05:17:18.760Z,14.12
2018-06-18T05:18:23.308Z,14.12
2018-06-18T05:19:27.988Z,14.16
2018-06-18T05:20:32.833Z,14.19
2018-06-18T05:21:37.480Z,14.26
2018-06-18T05:22:42.064Z,14.32
2018-06-18T05:23:46.642Z,14.32
2018-06-18T05:24:52.787Z,14.32
2018-06-18T05:25:59.549Z,14.34
2018-06-18T05:27:04.198Z,14.31
2018-06-18T05:28:08.703Z,14.35
2018-06-18T05:29:14.429Z,14.39
2018-06-18T05:30:21.319Z,14.39
2018-06-18T05:31:28.692Z,14.41
2018-06-18T05:32:33.188Z,14.39
2018-06-18T05:33:38.403Z,14.34
2018-06-18T05:34:42.894Z,14.38
2018-06-18T05:35:48.088Z,14.44
2018-06-18T05:36:53.335Z,14.45
2018-06-18T05:38:00.532Z,14.49
2018-06-18T05:39:07.522Z,14.45
2018-06-18T05:40:15.138Z,14.48
2018-06-18T05:41:20.688Z,14.48
2018-06-18T05:42:27.494Z,14.48
2018-06-18T05:43:33.666Z,14.52
2018-06-18T05:44:40.404Z,14.59
2018-06-18T05:45:45.030Z,14.63
2018-06-18T05:46:49.710Z,14.62
2018-06-18T05:47:54.386Z,14.66
2018-06-18T05:49:00.504Z,14.69
2018-06-18T05:50:05.220Z,14.67
2018-06-18T05:51:11.335Z,14.65
2018-06-18T05:52:15.830Z,14.64
2018-06-18T05:53:30.268Z,14.63
2018-06-18T05:54:34.833Z,14.56
2018-06-18T05:55:39.340Z,14.59
2018-06-18T05:56:43.898Z,14.58
2018-06-18T05:57:49.407Z,14.59
2018-06-18T05:58:53.945Z,14.29
2018-06-18T05:59:58.476Z,14.26
2018-06-18T06:01:03.605Z,14.18
2018-06-18T06:02:08.173Z,14.15
2018-06-18T06:03:12.860Z,14.22
2018-06-18T06:04:18.124Z,14.19
2018-06-18T06:05:22.685Z,14.14
2018-06-18T06:06:27.210Z,14.01
2018-06-18T06:07:31.819Z,13.97
2018-06-18T06:08:36.380Z,13.94
2018-06-18T06:09:41.548Z,13.89
2018-06-18T06:10:46.104Z,13.97
2018-06-18T06:11:51.375Z,13.96
2018-06-18T06:12:56.028Z,14.04
2018-06-18T06:14:02.530Z,14.12
2018-06-18T06:15:07.641Z,14.19
2018-06-18T06:16:12.343Z,14.32
2018-06-18T06:17:16.853Z,14.43
2018-06-18T06:18:21.372Z,14.46
2018-06-18T06:19:25.925Z,14.45
2018-06-18T06:20:30.468Z,14.37
2018-06-18T06:21:36.389Z,14.29
2018-06-18T06:22:42.627Z,14.18
2018-06-18T06:23:48.261Z,14.45
2018-06-18T06:24:54.333Z,14.42
2018-06-18T06:25:59.840Z,14.66
2018-06-18T06:27:06.719Z,14.77
2018-06-18T06:28:11.956Z,14.66
2018-06-18T06:29:16.554Z,14.70
2018-06-18T06:30:26.148Z,14.62
2018-06-18T06:31:31.021Z,14.61
2018-06-18T06:32:35.614Z,14.60
2018-06-18T06:33:40.711Z,14.54
2018-06-18T06:34:47.295Z,14.66
2018-06-18T06:35:52.051Z,14.66
2018-06-18T06:36:56.564Z,14.72
2018-06-18T06:38:01.899Z,14.77
2018-06-18T06:39:08.805Z,14.66
2018-06-18T06:40:14.017Z,14.84
2018-06-18T06:41:18.667Z,14.81
2018-06-18T06:42:23.438Z,14.77
2018-06-18T06:43:28.037Z,14.84
2018-06-18T06:44:32.611Z,14.82
2018-06-18T06:45:37.233Z,14.84
2018-06-18T06:46:43.574Z,14.86
2018-06-18T06:47:49.151Z,14.92
2018-06-18T06:48:56.861Z,14.91
2018-06-18T06:50:01.521Z,14.95
2018-06-18T06:51:07.060Z,15.01
2018-06-18T06:52:11.816Z,15.02
2018-06-18T06:53:16.851Z,14.97
2018-06-18T06:54:21.384Z,15.03
2018-06-18T06:55:25.976Z,15.14
2018-06-18T06:56:30.519Z,15.16
2018-06-18T06:57:35.059Z,15.19
2018-06-18T06:58:39.670Z,15.28
2018-06-18T06:59:44.689Z,15.27
2018-06-18T07:00:50.450Z,15.36
2018-06-18T07:01:55.041Z,15.31
2018-06-18T07:02:59.595Z,15.51
2018-06-18T07:04:04.154Z,15.56
2018-06-18T07:05:08.693Z,15.45
2018-06-18T07:06:13.715Z,15.43
2018-06-18T07:07:18.310Z,15.33
2018-06-18T07:08:23.776Z,15.31
2018-06-18T07:09:30.043Z,15.32
2018-06-18T07:10:35.294Z,15.36
2018-06-18T07:11:41.154Z,15.42
2018-06-18T07:12:46.640Z,15.52
2018-06-18T07:13:51.347Z,15.45
2018-06-18T07:14:55.941Z,15.61
2018-06-18T07:16:01.757Z,15.71
2018-06-18T07:17:07.682Z,15.83
2018-06-18T07:18:13.324Z,15.97
2018-06-18T07:19:18.650Z,16.07
2018-06-18T07:20:24.117Z,16.01
2018-06-18T07:21:30.812Z,15.93
2018-06-18T07:22:35.786Z,16.06
2018-06-18T07:23:41.300Z,16.17
2018-06-18T07:24:45.797Z,16.15
2018-06-18T07:25:50.901Z,16.14
2018-06-18T07:26:55.484Z,16.24
2018-06-18T07:28:00.040Z,16.25
2018-06-18T07:29:04.567Z,16.31
2018-06-18T07:30:11.142Z,16.39
2018-06-18T07:31:16.418Z,16.34
2018-06-18T07:32:21.252Z,16.44
2018-06-18T07:33:29.950Z,16.21
2018-06-18T07:34:35.402Z,16.26
2018-06-18T07:35:39.919Z,16.56
2018-06-18T07:36:44.663Z,16.82
2018-06-18T07:37:50.409Z,17.00
2018-06-18T07:38:56.095Z,16.88
2018-06-18T07:40:00.675Z,16.99
2018-06-18T07:41:05.250Z,16.66
2018-06-18T07:42:10.796Z,16.21
2018-06-18T07:43:16.310Z,16.49
2018-06-18T07:44:21.012Z,16.38
2018-06-18T07:45:25.522Z,16.43
2018-06-18T07:46:30.544Z,16.72
2018-06-18T07:47:35.387Z,16.31
2018-06-18T07:48:39.965Z,16.39
2018-06-18T07:49:44.554Z,16.48
2018-06-18T07:50:49.567Z,16.89
2018-06-18T07:51:54.116Z,16.96
2018-06-18T07:52:58.681Z,16.81
2018-06-18T07:54:08.191Z,16.85
2018-06-18T07:55:13.286Z,16.87
2018-06-18T07:56:19.890Z,16.85
2018-06-18T07:57:24.686Z,16.73
2018-06-18T07:58:29.227Z,16.69
2018-06-18T07:59:33.877Z,16.66
2018-06-18T08:00:38.372Z,16.72
2018-06-18T08:01:43.678Z,16.93
2018-06-18T08:02:48.282Z,16.57
2018-06-18T08:03:52.905Z,16.48
2018-06-18T08:04:57.421Z,16.59
2018-06-18T08:06:03.027Z,16.64
2018-06-18T08:07:07.606Z,16.62
2018-06-18T08:08:13.986Z,16.68
2018-06-18T08:09:20.223Z,16.90
2018-06-18T08:10:24.730Z,16.88
2018-06-18T08:11:30.900Z,16.91
2018-06-18T08:12:36.109Z,16.82
2018-06-18T08:13:41.352Z,16.87
2018-06-18T08:14:45.917Z,16.65
2018-06-18T08:15:50.900Z,16.93
2018-06-18T08:16:55.440Z,16.96
2018-06-18T08:18:00.027Z,16.83
2018-06-18T08:19:04.859Z,16.61
2018-06-18T08:20:09.519Z,16.91
2018-06-18T08:21:14.658Z,17.28
2018-06-18T08:22:19.777Z,17.51
2018-06-18T08:23:25.345Z,17.19
2018-06-18T08:24:31.707Z,17.51
2018-06-18T08:25:36.785Z,17.33
2018-06-18T08:26:41.403Z,16.95
2018-06-18T08:27:47.664Z,16.50
2018-06-18T08:28:52.759Z,16.59
2018-06-18T08:29:58.306Z,16.79
2018-06-18T08:31:03.475Z,17.26
2018-06-18T08:32:08.226Z,17.10
2018-06-18T08:33:12.889Z,16.94
2018-06-18T08:34:17.672Z,16.96
2018-06-18T08:35:25.638Z,16.61
2018-06-18T08:36:30.299Z,16.98
2018-06-18T08:37:34.941Z,16.64
2018-06-18T08:38:39.575Z,16.47
2018-06-18T08:39:45.098Z,16.85
2018-06-18T08:40:50.356Z,16.87
2018-06-18T08:41:56.325Z,16.76
2018-06-18T08:43:01.018Z,16.82
2018-06-18T08:44:06.186Z,16.45
2018-06-18T08:45:10.883Z,16.33
2018-06-18T08:46:15.506Z,16.19
2018-06-18T08:47:20.264Z,16.27
2018-06-18T08:48:30.488Z,16.56
2018-06-18T08:49:39.222Z,16.28
2018-06-18T08:50:50.861Z,16.21
2018-06-18T08:52:01.414Z,16.75
2018-06-18T08:53:12.759Z,16.89
2018-06-18T08:54:25.565Z,16.63
2018-06-18T08:55:35.041Z,16.78
2018-06-18T08:56:44.374Z,17.05
2018-06-18T08:57:54.017Z,16.91
2018-06-18T08:59:03.531Z,16.74
2018-06-18T09:00:14.251Z,16.70
2018-06-18T09:01:23.140Z,17.08
2018-06-18T09:02:32.018Z,17.28
2018-06-18T09:03:41.499Z,17.31
2018-06-18T09:04:50.169Z,17.27
2018-06-18T09:05:55.021Z,16.45
2018-06-18T09:07:03.833Z,16.48
2018-06-18T09:08:17.399Z,16.44
2018-06-18T09:09:22.063Z,16.31
2018-06-18T09:10:33.659Z,16.49
2018-06-18T09:11:39.834Z,16.73
2018-06-18T09:12:44.384Z,17.00
2018-06-18T09:13:52.493Z,17.03
2018-06-18T09:14:57.170Z,17.21
2018-06-18T09:16:03.440Z,17.28
2018-06-18T09:17:08.029Z,17.05
2018-06-18T09:18:13.714Z,16.68
2018-06-18T09:19:19.477Z,16.78
2018-06-18T09:20:24.748Z,16.68
2018-06-18T09:21:29.284Z,16.78
2018-06-18T09:22:33.948Z,16.59
2018-06-18T09:23:38.636Z,16.81
2018-06-18T09:24:44.364Z,16.91
2018-06-18T09:25:54.216Z,16.99
2018-06-18T09:27:03.728Z,16.92
2018-06-18T09:28:09.461Z,16.95
2018-06-18T09:29:14.095Z,16.34
2018-06-18T09:30:18.709Z,16.58
2018-06-18T09:31:23.402Z,16.34
2018-06-18T09:32:29.395Z,16.30
2018-06-18T09:33:33.948Z,16.33
2018-06-18T09:34:38.647Z,16.59
2018-06-18T09:35:43.429Z,16.48
2018-06-18T09:36:48.139Z,16.83
2018-06-18T09:37:53.429Z,16.96
2018-06-18T09:38:58.537Z,16.93
2018-06-18T09:40:04.381Z,16.66
2018-06-18T09:41:09.045Z,16.82
2018-06-18T09:42:13.758Z,17.02
2018-06-18T09:43:19.629Z,17.34
2018-06-18T09:44:24.343Z,17.30
2018-06-18T09:45:29.458Z,17.35
2018-06-18T09:46:35.212Z,17.18
2018-06-18T09:47:39.864Z,17.10
2018-06-18T09:48:49.391Z,16.99
2018-06-18T09:49:58.997Z,16.52
2018-06-18T09:51:10.647Z,16.50
2018-06-18T09:52:20.215Z,16.60
2018-06-18T09:53:31.069Z,16.60
2018-06-18T09:54:41.094Z,16.74
2018-06-18T09:55:51.541Z,16.95
2018-06-18T09:57:02.713Z,17.06
2018-06-18T09:58:16.611Z,16.40
2018-06-18T09:59:27.811Z,16.54
2018-06-18T10:00:43.079Z,16.52
2018-06-18T10:01:48.243Z,16.69
2018-06-18T10:02:53.731Z,16.98
2018-06-18T10:04:00.874Z,17.21
2018-06-18T10:05:05.462Z,16.88
2018-06-18T10:06:12.272Z,16.72
2018-06-18T10:07:17.867Z,16.86
2018-06-18T10:08:23.370Z,17.23
2018-06-18T10:09:27.993Z,17.06
2018-06-18T10:10:34.110Z,17.43
2018-06-18T10:11:38.877Z,17.17
2018-06-18T10:12:44.772Z,17.08
2018-06-18T10:13:49.517Z,17.34
2018-06-18T10:14:54.237Z,17.61
2018-06-18T10:15:58.927Z,17.54
2018-06-18T10:17:04.552Z,17.96
2018-06-18T10:18:10.935Z,18.20
2018-06-18T10:19:15.769Z,17.94
2018-06-18T10:20:20.468Z,17.62
2018-06-18T10:21:25.524Z,17.68
2018-06-18T10:22:30.222Z,17.44
2018-06-18T10:23:36.057Z,17.52
2018-06-18T10:24:42.543Z,17.55
2018-06-18T10:25:48.259Z,17.68
2018-06-18T10:26:54.178Z,17.79
2018-06-18T10:27:59.783Z,17.70
2018-06-18T10:29:05.124Z,17.94
2018-06-18T10:30:10.815Z,17.75
2018-06-18T10:31:18.120Z,18.02
2018-06-18T10:32:32.320Z,17.84
2018-06-18T10:33:45.989Z,17.84
2018-06-18T10:34:56.684Z,18.14
2018-06-18T10:36:06.235Z,18.16
2018-06-18T10:37:15.811Z,17.94
2018-06-18T10:38:25.959Z,18.23
2018-06-18T10:39:37.388Z,18.03
2018-06-18T10:40:48.709Z,17.94
2018-06-18T10:44:07.298Z,17.99
2018-06-18T10:45:11.877Z,18.06
2018-06-18T10:46:18.560Z,18.15
2018-06-18T10:47:23.537Z,18.36
2018-06-18T10:48:29.056Z,18.19
2018-06-18T10:49:33.691Z,18.19
2018-06-18T10:50:40.774Z,18.13
2018-06-18T10:51:46.673Z,18.10
2018-06-18T10:52:51.366Z,18.34
2018-06-18T10:53:56.337Z,18.25
2018-06-18T10:55:01.858Z,18.23
2018-06-18T10:56:07.465Z,18.18
2018-06-18T10:57:15.067Z,18.07
2018-06-18T10:58:21.667Z,18.16
2018-06-18T10:59:28.236Z,17.64
2018-06-18T11:00:42.674Z,17.48
2018-06-18T11:01:49.270Z,17.80
2018-06-18T11:02:59.291Z,17.55
2018-06-18T11:04:05.795Z,17.85
2018-06-18T11:05:13.719Z,17.99
2018-06-18T11:06:24.625Z,18.13
2018-06-18T11:07:35.274Z,18.02
2018-06-18T11:08:45.555Z,18.09
2018-06-18T11:09:53.393Z,18.07
2018-06-18T11:11:00.038Z,18.02
2018-06-18T11:12:07.400Z,18.26
2018-06-18T11:13:12.080Z,18.44
2018-06-18T11:14:16.789Z,18.59
2018-06-18T11:15:24.755Z,18.63
2018-06-18T11:16:31.590Z,18.63
2018-06-18T11:17:41.561Z,18.73
2018-06-18T11:18:51.661Z,18.73
2018-06-18T11:20:01.328Z,18.74
2018-06-18T11:21:11.554Z,18.70
2018-06-18T11:22:18.442Z,18.86
2018-06-18T11:23:28.501Z,19.04
2018-06-18T11:24:39.624Z,18.74
2018-06-18T11:25:50.460Z,18.25
2018-06-18T11:26:55.973Z,18.55
2018-06-18T11:28:02.409Z,18.71
2018-06-18T11:29:09.625Z,18.94
2018-06-18T11:30:18.280Z,18.85
2018-06-18T11:31:25.501Z,18.74
2018-06-18T11:32:30.824Z,18.80
2018-06-18T11:33:35.859Z,19.20
2018-06-18T11:34:43.329Z,19.05
2018-06-18T11:35:50.061Z,19.07
2018-06-18T11:36:56.738Z,18.91
2018-06-18T11:38:02.256Z,18.81
2018-06-18T11:39:10.208Z,18.56
2018-06-18T11:40:17.825Z,18.68
2018-06-18T11:41:22.537Z,18.80
2018-06-18T11:42:29.320Z,18.87
2018-06-18T11:43:35.376Z,18.70
2018-06-18T11:44:40.090Z,18.39
2018-06-18T11:45:44.668Z,18.48
2018-06-18T11:46:51.031Z,18.43
2018-06-18T11:48:00.873Z,18.28
2018-06-18T11:49:11.246Z,18.34
2018-06-18T11:50:19.790Z,18.44
2018-06-18T11:51:25.266Z,18.57
2018-06-18T11:52:32.835Z,18.70
2018-06-18T11:53:37.788Z,18.75
2018-06-18T11:54:42.479Z,18.60
2018-06-18T11:55:49.099Z,18.72
2018-06-18T11:56:53.837Z,18.44
2018-06-18T11:57:59.195Z,18.19
2018-06-18T11:59:10.224Z,18.28
2018-06-18T12:00:21.763Z,17.99
2018-06-18T12:01:35.796Z,17.91
2018-06-18T12:02:46.197Z,17.94
2018-06-18T12:03:58.246Z,17.98
2018-06-18T12:05:10.926Z,18.03
2018-06-18T12:06:20.571Z,18.03
2018-06-18T12:07:33.776Z,18.18
2018-06-18T12:08:56.448Z,18.24
2018-06-18T12:10:05.363Z,18.31
2018-06-18T12:11:09.992Z,18.31
2018-06-18T12:12:16.019Z,18.32
2018-06-18T12:13:23.821Z,18.38
2018-06-18T12:14:29.294Z,18.63
2018-06-18T12:15:33.980Z,18.48
2018-06-18T12:16:39.117Z,18.48
2018-06-18T12:17:44.500Z,18.44
2018-06-18T12:18:50.609Z,18.57
2018-06-18T12:19:56.355Z,18.72
2018-06-18T12:21:02.506Z,18.50
2018-06-18T12:22:09.187Z,18.32
2018-06-18T12:23:13.867Z,18.43
2018-06-18T12:24:18.967Z,18.36
2018-06-18T12:25:24.280Z,18.28
2018-06-18T12:26:32.491Z,18.26
2018-06-18T12:27:37.169Z,18.61
2018-06-18T12:28:42.918Z,18.87
2018-06-18T12:29:48.017Z,18.93
2018-06-18T12:30:53.621Z,18.66
2018-06-18T12:31:59.889Z,18.78
2018-06-18T12:33:05.757Z,19.00
2018-06-18T12:34:12.803Z,19.16
2018-06-18T12:35:18.293Z,19.16
2018-06-18T12:36:23.162Z,19.20
2018-06-18T12:37:33.980Z,19.24
2018-06-18T12:38:40.882Z,18.62
2018-06-18T12:39:50.616Z,18.48
2018-06-18T12:40:56.425Z,18.69
2018-06-18T12:42:02.693Z,18.51
2018-06-18T12:43:09.191Z,18.47
2018-06-18T12:44:16.799Z,18.61
2018-06-18T12:45:27.854Z,18.66
2018-06-18T12:48:43.766Z,18.73
2018-06-18T12:49:53.429Z,18.85
2018-06-18T12:51:04.042Z,18.92
2018-06-18T12:54:16.469Z,18.96
2018-06-18T12:55:26.430Z,19.01
2018-06-18T12:56:37.521Z,19.07
2018-06-18T12:57:42.552Z,18.85
2018-06-18T12:59:00.689Z,18.76
2018-06-18T13:00:05.371Z,19.03
2018-06-18T13:01:11.493Z,19.38
2018-06-18T13:02:18.946Z,19.49
2018-06-18T13:03:23.544Z,19.55
2018-06-18T13:04:28.061Z,19.34
2018-06-18T13:05:32.726Z,19.14
2018-06-18T13:06:38.365Z,18.98
2018-06-18T13:07:44.442Z,18.95
2018-06-18T13:08:49.446Z,18.95
2018-06-18T13:09:54.901Z,18.90
2018-06-18T13:11:00.844Z,18.92
2018-06-18T13:12:06.248Z,18.86
2018-06-18T13:13:10.785Z,18.91
2018-06-18T13:14:17.168Z,18.87
2018-06-18T13:15:23.304Z,18.95
2018-06-18T13:16:27.949Z,18.55
2018-06-18T13:17:32.519Z,18.57
2018-06-18T13:18:37.067Z,18.73
2018-06-18T13:19:42.545Z,18.88
2018-06-18T13:20:49.180Z,19.00
2018-06-18T13:21:54.169Z,19.12
2018-06-18T13:22:59.810Z,19.18
2018-06-18T13:24:05.391Z,19.21
2018-06-18T13:25:10.628Z,19.20
2018-06-18T13:26:15.227Z,19.02
2018-06-18T13:27:24.264Z,19.29
2018-06-18T13:28:29.490Z,19.49
2018-06-18T13:29:34.791Z,19.55
2018-06-18T13:30:40.275Z,19.64
2018-06-18T13:31:46.500Z,19.43
2018-06-18T13:32:51.459Z,19.37
2018-06-18T13:33:56.714Z,19.04
2018-06-18T13:35:05.540Z,19.23
2018-06-18T13:36:18.313Z,19.35
2018-06-18T13:37:27.850Z,19.50
2018-06-18T13:38:38.384Z,19.56
2018-06-18T13:39:48.614Z,19.51
2018-06-18T13:41:00.211Z,19.33
2018-06-18T13:42:10.161Z,19.49
2018-06-18T13:43:19.757Z,19.61
2018-06-18T13:44:30.398Z,19.57
2018-06-18T13:45:36.161Z,19.31
2018-06-18T13:46:45.850Z,19.39
2018-06-18T13:47:56.399Z,19.49
2018-06-18T13:49:02.000Z,19.43
2018-06-18T13:50:08.879Z,19.54
2018-06-18T13:51:18.300Z,19.55
2018-06-18T13:52:24.152Z,19.55
2018-06-18T13:53:31.512Z,19.42
2018-06-18T13:54:41.065Z,19.46
2018-06-18T13:55:56.654Z,19.50
2018-06-18T13:57:02.715Z,19.61
2018-06-18T13:58:07.937Z,19.28
2018-06-18T13:59:12.680Z,19.38
2018-06-18T14:00:22.126Z,19.34
2018-06-18T14:01:29.024Z,19.44
2018-06-18T14:02:34.245Z,19.58
2018-06-18T14:03:39.997Z,19.74
2018-06-18T14:04:44.954Z,19.72
2018-06-18T14:05:49.517Z,19.79
2018-06-18T14:06:54.422Z,20.01
2018-06-18T14:08:00.330Z,19.91
2018-06-18T14:09:14.267Z,19.84
2018-06-18T14:10:20.241Z,19.99
2018-06-18T14:11:27.796Z,19.91
2018-06-18T14:12:33.401Z,20.06
2018-06-18T14:13:37.999Z,19.88
2018-06-18T14:14:45.429Z,19.85
2018-06-18T14:15:50.005Z,19.72
2018-06-18T14:16:56.047Z,19.82
2018-06-18T14:18:00.545Z,20.08
2018-06-18T14:19:11.098Z,20.12
2018-06-18T14:20:20.631Z,20.15